sensor_id;sensor_type;location;lat;lon;timestamp;pressure;altitude;pressure_sealevel;temperature;humidity
80500;BME280;69823;54.120;-4.710;2023-08-20T00:00:24;99821.86;;;28.32;25.92
80500;BME280;69823;54.120;-4.710;2023-08-20T00:02:53;99822.15;;;28.30;25.93
80500;BME280;69823;54.120;-4.710;2023-08-20T00:05:16;99813.28;;;28.33;25.90
80500;BME280;69823;54.120;-4.710;2023-08-20T00:07:42;99816.94;;;28.32;25.89
80500;BME280;69823;54.120;-4.710;2023-08-20T00:10:08;99820.30;;;28.34;25.86
80500;BME280;69823;54.120;-4.710;2023-08-20T00:12:33;99824.36;;;28.33;25.88
80500;BME280;69823;54.120;-4.710;2023-08-20T00:14:59;99819.96;;;28.31;25.90
80500;BME280;69823;54.120;-4.710;2023-08-20T00:17:25;99827.75;;;28.32;25.88
80500;BME280;69823;54.120;-4.710;2023-08-20T00:19:50;99832.36;;;28.35;25.85
80500;BME280;69823;54.120;-4.710;2023-08-20T00:22:16;99832.78;;;28.33;25.86
80500;BME280;69823;54.120;-4.710;2023-08-20T00:24:41;99837.79;;;28.29;25.91
80500;BME280;69823;54.120;-4.710;2023-08-20T00:27:07;99843.29;;;28.38;25.82
80500;BME280;69823;54.120;-4.710;2023-08-20T00:29:32;99843.95;;;28.35;25.82
80500;BME280;69823;54.120;-4.710;2023-08-20T00:31:58;99844.32;;;28.32;25.85
80500;BME280;69823;54.120;-4.710;2023-08-20T00:34:24;99836.47;;;28.33;25.84
80500;BME280;69823;54.120;-4.710;2023-08-20T00:36:49;99836.44;;;28.36;25.81
80500;BME280;69823;54.120;-4.710;2023-08-20T00:39:15;99836.21;;;28.35;25.80
80500;BME280;69823;54.120;-4.710;2023-08-20T00:41:41;99834.85;;;28.33;25.83
80500;BME280;69823;54.120;-4.710;2023-08-20T00:44:07;99831.36;;;28.34;25.83
80500;BME280;69823;54.120;-4.710;2023-08-20T00:46:32;99830.63;;;28.58;25.87
80500;BME280;69823;54.120;-4.710;2023-08-20T00:48:58;99830.89;;;28.32;25.87
80500;BME280;69823;54.120;-4.710;2023-08-20T00:51:24;99831.86;;;28.31;25.89
80500;BME280;69823;54.120;-4.710;2023-08-20T00:53:49;99827.96;;;28.26;25.92
80500;BME280;69823;54.120;-4.710;2023-08-20T00:56:15;99830.45;;;28.32;25.86
80500;BME280;69823;54.120;-4.710;2023-08-20T00:58:41;99844.80;;;28.36;25.84
80500;BME280;69823;54.120;-4.710;2023-08-20T01:01:07;99845.65;;;28.29;25.93
80500;BME280;69823;54.120;-4.710;2023-08-20T01:03:32;99847.07;;;28.28;25.92
80500;BME280;69823;54.120;-4.710;2023-08-20T01:06:05;99855.53;;;28.32;25.89
80500;BME280;69823;54.120;-4.710;2023-08-20T01:08:29;99854.82;;;28.30;25.90
80500;BME280;69823;54.120;-4.710;2023-08-20T01:10:54;99858.31;;;28.33;25.86
80500;BME280;69823;54.120;-4.710;2023-08-20T01:13:16;99855.71;;;28.28;25.92
80500;BME280;69823;54.120;-4.710;2023-08-20T01:15:41;99860.56;;;28.25;25.93
80500;BME280;69823;54.120;-4.710;2023-08-20T01:18:06;99863.43;;;28.25;25.93
80500;BME280;69823;54.120;-4.710;2023-08-20T01:20:37;99861.64;;;28.19;25.99
80500;BME280;69823;54.120;-4.710;2023-08-20T01:23:11;99857.39;;;27.97;25.94
80500;BME280;69823;54.120;-4.710;2023-08-20T01:25:32;99853.64;;;28.00;25.99
80500;BME280;69823;54.120;-4.710;2023-08-20T01:27:57;99852.43;;;28.19;26.03
80500;BME280;69823;54.120;-4.710;2023-08-20T01:30:15;99862.23;;;28.22;25.98
80500;BME280;69823;54.120;-4.710;2023-08-20T01:32:41;99865.40;;;28.21;25.97
80500;BME280;69823;54.120;-4.710;2023-08-20T01:35:07;99867.39;;;28.25;25.93
80500;BME280;69823;54.120;-4.710;2023-08-20T01:37:32;99861.19;;;28.27;25.91
80500;BME280;69823;54.120;-4.710;2023-08-20T01:39:58;99856.48;;;28.24;25.97
80500;BME280;69823;54.120;-4.710;2023-08-20T01:42:23;99852.24;;;28.24;25.96
80500;BME280;69823;54.120;-4.710;2023-08-20T01:44:49;99846.59;;;28.23;25.96
80500;BME280;69823;54.120;-4.710;2023-08-20T01:47:15;99846.52;;;28.20;26.02
80500;BME280;69823;54.120;-4.710;2023-08-20T01:49:40;99844.59;;;28.23;26.02
80500;BME280;69823;54.120;-4.710;2023-08-20T01:52:06;99847.43;;;28.70;25.99
80500;BME280;69823;54.120;-4.710;2023-08-20T01:54:32;99853.92;;;28.18;26.05
80500;BME280;69823;54.120;-4.710;2023-08-20T01:56:57;99856.98;;;28.16;26.07
80500;BME280;69823;54.120;-4.710;2023-08-20T01:59:23;99866.93;;;28.20;26.04
80500;BME280;69823;54.120;-4.710;2023-08-20T02:01:49;99868.79;;;28.21;26.05
80500;BME280;69823;54.120;-4.710;2023-08-20T02:04:14;99867.32;;;28.24;26.02
80500;BME280;69823;54.120;-4.710;2023-08-20T02:06:40;99867.69;;;28.25;25.97
80500;BME280;69823;54.120;-4.710;2023-08-20T02:09:06;99872.03;;;28.20;26.03
80500;BME280;69823;54.120;-4.710;2023-08-20T02:11:31;99872.19;;;28.22;26.02
80500;BME280;69823;54.120;-4.710;2023-08-20T02:13:57;99876.90;;;28.20;26.07
80500;BME280;69823;54.120;-4.710;2023-08-20T02:16:23;99873.71;;;28.18;26.08
80500;BME280;69823;54.120;-4.710;2023-08-20T02:18:48;99871.22;;;27.98;26.07
80500;BME280;69823;54.120;-4.710;2023-08-20T02:21:14;99876.43;;;28.18;26.05
80500;BME280;69823;54.120;-4.710;2023-08-20T02:23:40;99877.44;;;28.20;26.04
80500;BME280;69823;54.120;-4.710;2023-08-20T02:26:05;99876.52;;;28.15;26.04
80500;BME280;69823;54.120;-4.710;2023-08-20T02:28:31;99881.18;;;28.15;26.11
80500;BME280;69823;54.120;-4.710;2023-08-20T02:30:57;99886.54;;;28.11;26.12
80500;BME280;69823;54.120;-4.710;2023-08-20T02:33:23;99888.45;;;28.13;26.03
80500;BME280;69823;54.120;-4.710;2023-08-20T02:35:48;99882.86;;;28.44;26.03
80500;BME280;69823;54.120;-4.710;2023-08-20T02:38:14;99891.37;;;28.16;26.03
80500;BME280;69823;54.120;-4.710;2023-08-20T02:40:40;99892.53;;;28.10;26.10
80500;BME280;69823;54.120;-4.710;2023-08-20T02:43:05;99892.52;;;28.10;26.15
80500;BME280;69823;54.120;-4.710;2023-08-20T02:45:31;99891.92;;;28.09;26.09
80500;BME280;69823;54.120;-4.710;2023-08-20T02:47:57;99892.43;;;27.90;26.02
80500;BME280;69823;54.120;-4.710;2023-08-20T02:50:23;99892.88;;;27.88;26.02
80500;BME280;69823;54.120;-4.710;2023-08-20T02:52:48;99897.36;;;28.12;26.01
80500;BME280;69823;54.120;-4.710;2023-08-20T02:55:14;99905.30;;;28.10;26.04
80500;BME280;69823;54.120;-4.710;2023-08-20T02:57:40;99906.51;;;28.08;26.02
80500;BME280;69823;54.120;-4.710;2023-08-20T03:00:06;99907.05;;;28.00;26.09
80500;BME280;69823;54.120;-4.710;2023-08-20T03:02:31;99909.57;;;28.07;26.02
80500;BME280;69823;54.120;-4.710;2023-08-20T03:04:57;99908.62;;;28.06;26.08
80500;BME280;69823;54.120;-4.710;2023-08-20T03:07:22;99913.54;;;28.04;26.09
80500;BME280;69823;54.120;-4.710;2023-08-20T03:09:48;99911.33;;;28.02;26.09
80500;BME280;69823;54.120;-4.710;2023-08-20T03:12:14;99910.65;;;28.04;26.05
80500;BME280;69823;54.120;-4.710;2023-08-20T03:14:39;99911.08;;;28.08;26.01
80500;BME280;69823;54.120;-4.710;2023-08-20T03:17:05;99915.07;;;28.05;26.05
80500;BME280;69823;54.120;-4.710;2023-08-20T03:19:33;99914.54;;;28.01;26.08
80500;BME280;69823;54.120;-4.710;2023-08-20T03:21:56;99916.06;;;28.07;26.04
80500;BME280;69823;54.120;-4.710;2023-08-20T03:24:22;99914.36;;;28.07;26.09
80500;BME280;69823;54.120;-4.710;2023-08-20T03:26:48;99914.49;;;28.04;26.08
80500;BME280;69823;54.120;-4.710;2023-08-20T03:29:14;99916.87;;;28.05;26.03
80500;BME280;69823;54.120;-4.710;2023-08-20T03:31:39;99914.98;;;27.99;26.07
80500;BME280;69823;54.120;-4.710;2023-08-20T03:34:05;99915.45;;;28.02;26.03
80500;BME280;69823;54.120;-4.710;2023-08-20T03:36:31;99911.45;;;28.04;26.06
80500;BME280;69823;54.120;-4.710;2023-08-20T03:38:56;99914.99;;;28.04;26.04
80500;BME280;69823;54.120;-4.710;2023-08-20T03:41:22;99911.85;;;28.04;26.01
80500;BME280;69823;54.120;-4.710;2023-08-20T03:43:48;99917.65;;;28.03;26.05
80500;BME280;69823;54.120;-4.710;2023-08-20T03:46:13;99923.28;;;28.04;26.02
80500;BME280;69823;54.120;-4.710;2023-08-20T03:48:39;99924.22;;;28.07;26.00
80500;BME280;69823;54.120;-4.710;2023-08-20T03:51:05;99923.99;;;28.06;25.98
80500;BME280;69823;54.120;-4.710;2023-08-20T03:53:30;99921.12;;;28.02;26.03
80500;BME280;69823;54.120;-4.710;2023-08-20T03:55:56;99923.47;;;28.03;26.06
80500;BME280;69823;54.120;-4.710;2023-08-20T03:58:22;99918.65;;;28.00;26.10
80500;BME280;69823;54.120;-4.710;2023-08-20T04:00:47;99919.95;;;28.00;26.06
80500;BME280;69823;54.120;-4.710;2023-08-20T04:03:13;99921.91;;;28.29;26.06
80500;BME280;69823;54.120;-4.710;2023-08-20T04:05:39;99922.48;;;28.01;26.05
80500;BME280;69823;54.120;-4.710;2023-08-20T04:08:06;99923.49;;;28.02;26.05
80500;BME280;69823;54.120;-4.710;2023-08-20T04:10:30;99920.91;;;27.98;26.09
80500;BME280;69823;54.120;-4.710;2023-08-20T04:12:56;99922.57;;;27.94;26.11
80500;BME280;69823;54.120;-4.710;2023-08-20T04:15:21;99926.98;;;27.89;26.14
80500;BME280;69823;54.120;-4.710;2023-08-20T04:17:47;99929.56;;;27.97;26.07
80500;BME280;69823;54.120;-4.710;2023-08-20T04:20:13;99931.23;;;28.00;26.08
80500;BME280;69823;54.120;-4.710;2023-08-20T04:22:38;99933.47;;;27.99;26.03
80500;BME280;69823;54.120;-4.710;2023-08-20T04:25:05;99931.07;;;27.95;26.14
80500;BME280;69823;54.120;-4.710;2023-08-20T04:27:30;99933.31;;;28.25;26.05
80500;BME280;69823;54.120;-4.710;2023-08-20T04:29:56;99931.86;;;27.98;26.05
80500;BME280;69823;54.120;-4.710;2023-08-20T04:32:21;99934.80;;;27.96;26.04
80500;BME280;69823;54.120;-4.710;2023-08-20T04:34:47;99937.49;;;27.96;26.09
80500;BME280;69823;54.120;-4.710;2023-08-20T04:37:13;99941.96;;;27.94;26.11
80500;BME280;69823;54.120;-4.710;2023-08-20T04:39:38;99946.40;;;27.90;26.17
80500;BME280;69823;54.120;-4.710;2023-08-20T04:42:04;99953.27;;;27.88;26.15
80500;BME280;69823;54.120;-4.710;2023-08-20T04:44:30;99957.08;;;27.88;26.17
80500;BME280;69823;54.120;-4.710;2023-08-20T04:46:56;99962.94;;;27.87;26.12
80500;BME280;69823;54.120;-4.710;2023-08-20T04:49:21;99965.64;;;27.90;26.11
80500;BME280;69823;54.120;-4.710;2023-08-20T04:51:47;99968.62;;;27.92;26.08
80500;BME280;69823;54.120;-4.710;2023-08-20T04:54:13;99967.99;;;27.88;26.16
80500;BME280;69823;54.120;-4.710;2023-08-20T04:56:38;99975.43;;;27.89;26.15
80500;BME280;69823;54.120;-4.710;2023-08-20T04:59:04;99980.04;;;27.86;26.18
80500;BME280;69823;54.120;-4.710;2023-08-20T05:01:30;99983.59;;;28.13;26.12
80500;BME280;69823;54.120;-4.710;2023-08-20T05:03:55;99986.49;;;27.87;26.12
80500;BME280;69823;54.120;-4.710;2023-08-20T05:06:21;99984.75;;;27.84;26.14
80500;BME280;69823;54.120;-4.710;2023-08-20T05:08:47;99990.80;;;27.86;26.07
80500;BME280;69823;54.120;-4.710;2023-08-20T05:11:12;99994.39;;;27.94;26.05
80500;BME280;69823;54.120;-4.710;2023-08-20T05:13:38;99992.87;;;27.89;26.06
80500;BME280;69823;54.120;-4.710;2023-08-20T05:16:04;99993.23;;;27.87;26.11
80500;BME280;69823;54.120;-4.710;2023-08-20T05:18:29;99996.66;;;27.88;26.10
80500;BME280;69823;54.120;-4.710;2023-08-20T05:20:55;99990.72;;;27.86;26.12
80500;BME280;69823;54.120;-4.710;2023-08-20T05:23:21;99991.17;;;27.85;26.13
80500;BME280;69823;54.120;-4.710;2023-08-20T05:25:46;99994.07;;;27.86;26.15
80500;BME280;69823;54.120;-4.710;2023-08-20T05:28:12;99999.12;;;27.87;26.15
80500;BME280;69823;54.120;-4.710;2023-08-20T05:30:38;100000.07;;;27.91;26.10
80500;BME280;69823;54.120;-4.710;2023-08-20T05:33:04;99999.09;;;27.90;26.10
80500;BME280;69823;54.120;-4.710;2023-08-20T05:35:29;100000.24;;;27.87;26.09
80500;BME280;69823;54.120;-4.710;2023-08-20T05:37:55;100004.05;;;27.86;26.15
80500;BME280;69823;54.120;-4.710;2023-08-20T05:40:20;100003.42;;;27.97;25.98
80500;BME280;69823;54.120;-4.710;2023-08-20T05:42:46;100010.65;;;27.64;26.09
80500;BME280;69823;54.120;-4.710;2023-08-20T05:45:12;100006.56;;;28.09;26.11
80500;BME280;69823;54.120;-4.710;2023-08-20T05:47:38;100007.64;;;27.80;26.14
80500;BME280;69823;54.120;-4.710;2023-08-20T05:50:04;100008.67;;;27.78;26.18
80500;BME280;69823;54.120;-4.710;2023-08-20T05:52:29;100015.47;;;27.77;26.19
80500;BME280;69823;54.120;-4.710;2023-08-20T05:54:55;100018.07;;;28.25;26.16
80500;BME280;69823;54.120;-4.710;2023-08-20T05:57:20;100014.20;;;28.27;26.14
80500;BME280;69823;54.120;-4.710;2023-08-20T05:59:46;100013.16;;;27.81;26.12
80500;BME280;69823;54.120;-4.710;2023-08-20T06:02:15;100007.20;;;27.81;26.11
80500;BME280;69823;54.120;-4.710;2023-08-20T06:04:37;100009.95;;;27.79;26.13
80500;BME280;69823;54.120;-4.710;2023-08-20T06:07:03;100010.01;;;27.93;26.24
80500;BME280;69823;54.120;-4.710;2023-08-20T06:09:29;100013.31;;;27.73;26.25
80500;BME280;69823;54.120;-4.710;2023-08-20T06:11:54;100013.76;;;27.72;26.25
80500;BME280;69823;54.120;-4.710;2023-08-20T06:14:20;100017.51;;;27.74;26.19
80500;BME280;69823;54.120;-4.710;2023-08-20T06:16:46;100012.96;;;27.70;26.19
80500;BME280;69823;54.120;-4.710;2023-08-20T06:19:12;100018.30;;;27.97;26.16
80500;BME280;69823;54.120;-4.710;2023-08-20T06:21:37;100016.24;;;27.68;26.20
80500;BME280;69823;54.120;-4.710;2023-08-20T06:24:04;100016.38;;;27.72;26.16
80500;BME280;69823;54.120;-4.710;2023-08-20T06:26:29;100013.82;;;27.71;26.17
80500;BME280;69823;54.120;-4.710;2023-08-20T06:28:54;100011.68;;;27.71;26.20
80500;BME280;69823;54.120;-4.710;2023-08-20T06:31:20;100014.23;;;27.65;26.25
80500;BME280;69823;54.120;-4.710;2023-08-20T06:33:46;100016.44;;;27.63;26.23
80500;BME280;69823;54.120;-4.710;2023-08-20T06:36:11;100022.36;;;27.67;26.21
80500;BME280;69823;54.120;-4.710;2023-08-20T06:38:37;100027.06;;;27.65;26.26
80500;BME280;69823;54.120;-4.710;2023-08-20T06:41:03;100031.26;;;27.66;26.24
80500;BME280;69823;54.120;-4.710;2023-08-20T06:43:28;100032.71;;;27.67;26.29
80500;BME280;69823;54.120;-4.710;2023-08-20T06:45:54;100033.64;;;27.62;26.33
80500;BME280;69823;54.120;-4.710;2023-08-20T06:48:20;100033.68;;;27.58;26.38
80500;BME280;69823;54.120;-4.710;2023-08-20T06:50:46;100037.53;;;27.62;26.27
80500;BME280;69823;54.120;-4.710;2023-08-20T06:53:11;100039.25;;;27.61;26.31
80500;BME280;69823;54.120;-4.710;2023-08-20T06:55:37;100036.60;;;27.60;26.32
80500;BME280;69823;54.120;-4.710;2023-08-20T06:58:03;100042.21;;;27.61;26.33
80500;BME280;69823;54.120;-4.710;2023-08-20T07:00:28;100042.74;;;27.59;26.29
80500;BME280;69823;54.120;-4.710;2023-08-20T07:02:54;100040.47;;;27.59;26.33
80500;BME280;69823;54.120;-4.710;2023-08-20T07:05:20;100040.41;;;27.60;26.32
80500;BME280;69823;54.120;-4.710;2023-08-20T07:07:46;100042.96;;;28.03;26.33
80500;BME280;69823;54.120;-4.710;2023-08-20T07:10:11;100048.73;;;27.54;26.40
80500;BME280;69823;54.120;-4.710;2023-08-20T07:12:37;100051.20;;;27.52;26.40
80500;BME280;69823;54.120;-4.710;2023-08-20T07:15:03;100058.75;;;27.78;26.36
80500;BME280;69823;54.120;-4.710;2023-08-20T07:17:28;100061.16;;;27.57;26.32
80500;BME280;69823;54.120;-4.710;2023-08-20T07:19:54;100060.18;;;27.57;26.31
80500;BME280;69823;54.120;-4.710;2023-08-20T07:22:20;100066.84;;;27.74;26.20
80500;BME280;69823;54.120;-4.710;2023-08-20T07:24:46;100073.47;;;27.92;26.25
80500;BME280;69823;54.120;-4.710;2023-08-20T07:27:11;100076.59;;;27.72;26.21
80500;BME280;69823;54.120;-4.710;2023-08-20T07:29:37;100079.42;;;27.75;26.13
80500;BME280;69823;54.120;-4.710;2023-08-20T07:32:03;100079.87;;;27.99;26.11
80500;BME280;69823;54.120;-4.710;2023-08-20T07:34:28;100085.09;;;27.76;26.11
80500;BME280;69823;54.120;-4.710;2023-08-20T07:36:54;100090.17;;;27.94;26.13
80500;BME280;69823;54.120;-4.710;2023-08-20T07:39:19;100095.98;;;27.72;26.10
80500;BME280;69823;54.120;-4.710;2023-08-20T07:41:45;100097.33;;;27.68;26.13
80500;BME280;69823;54.120;-4.710;2023-08-20T07:44:11;100099.67;;;27.67;26.13
80500;BME280;69823;54.120;-4.710;2023-08-20T07:46:37;100104.55;;;27.68;26.11
80500;BME280;69823;54.120;-4.710;2023-08-20T07:49:03;100100.83;;;27.68;26.12
80500;BME280;69823;54.120;-4.710;2023-08-20T07:51:28;100106.39;;;27.68;26.12
80500;BME280;69823;54.120;-4.710;2023-08-20T07:53:54;100108.03;;;27.89;26.14
80500;BME280;69823;54.120;-4.710;2023-08-20T07:56:19;100109.80;;;27.65;26.15
80500;BME280;69823;54.120;-4.710;2023-08-20T07:58:45;100115.86;;;27.72;26.10
80500;BME280;69823;54.120;-4.710;2023-08-20T08:01:11;100121.13;;;27.80;26.00
80500;BME280;69823;54.120;-4.710;2023-08-20T08:03:37;100125.86;;;27.81;26.02
80500;BME280;69823;54.120;-4.710;2023-08-20T08:06:02;100122.94;;;27.79;25.99
80500;BME280;69823;54.120;-4.710;2023-08-20T08:08:28;100122.09;;;27.71;26.08
80500;BME280;69823;54.120;-4.710;2023-08-20T08:10:54;100121.43;;;27.92;26.09
80500;BME280;69823;54.120;-4.710;2023-08-20T08:13:22;100122.56;;;27.66;26.09
80500;BME280;69823;54.120;-4.710;2023-08-20T08:15:45;100118.58;;;27.91;26.08
80500;BME280;69823;54.120;-4.710;2023-08-20T08:18:11;100121.14;;;27.66;26.09
80500;BME280;69823;54.120;-4.710;2023-08-20T08:20:37;100124.95;;;27.68;26.11
80500;BME280;69823;54.120;-4.710;2023-08-20T08:23:03;100119.27;;;27.86;26.17
80500;BME280;69823;54.120;-4.710;2023-08-20T08:25:28;100116.93;;;27.64;26.16
80500;BME280;69823;54.120;-4.710;2023-08-20T08:27:54;100115.29;;;27.63;26.15
80500;BME280;69823;54.120;-4.710;2023-08-20T08:30:20;100115.09;;;27.89;26.11
80500;BME280;69823;54.120;-4.710;2023-08-20T08:32:45;100115.10;;;27.59;26.15
80500;BME280;69823;54.120;-4.710;2023-08-20T08:35:11;100114.95;;;27.57;26.19
80500;BME280;69823;54.120;-4.710;2023-08-20T08:37:37;100120.31;;;27.60;26.16
80500;BME280;69823;54.120;-4.710;2023-08-20T08:40:03;100120.69;;;27.63;26.13
80500;BME280;69823;54.120;-4.710;2023-08-20T08:42:28;100126.33;;;27.85;26.12
80500;BME280;69823;54.120;-4.710;2023-08-20T08:44:54;100126.05;;;27.85;26.12
80500;BME280;69823;54.120;-4.710;2023-08-20T08:47:21;100122.83;;;27.58;26.17
80500;BME280;69823;54.120;-4.710;2023-08-20T08:49:46;100125.10;;;27.54;26.19
80500;BME280;69823;54.120;-4.710;2023-08-20T08:52:11;100125.66;;;27.53;26.20
80500;BME280;69823;54.120;-4.710;2023-08-20T08:54:37;100121.35;;;27.77;26.21
80500;BME280;69823;54.120;-4.710;2023-08-20T08:57:02;100122.85;;;27.49;26.25
80500;BME280;69823;54.120;-4.710;2023-08-20T08:59:28;100124.62;;;27.48;26.24
80500;BME280;69823;54.120;-4.710;2023-08-20T09:01:54;100129.07;;;27.52;26.19
80500;BME280;69823;54.120;-4.710;2023-08-20T09:04:19;100134.88;;;28.02;26.18
80500;BME280;69823;54.120;-4.710;2023-08-20T09:06:46;100125.60;;;27.52;26.19
80500;BME280;69823;54.120;-4.710;2023-08-20T09:09:11;100130.67;;;27.48;26.22
80500;BME280;69823;54.120;-4.710;2023-08-20T09:11:36;100132.10;;;27.70;26.27
80500;BME280;69823;54.120;-4.710;2023-08-20T09:14:02;100136.62;;;27.49;26.22
80500;BME280;69823;54.120;-4.710;2023-08-20T09:16:30;100140.31;;;27.60;26.14
80500;BME280;69823;54.120;-4.710;2023-08-20T09:18:54;100142.03;;;27.84;26.12
80500;BME280;69823;54.120;-4.710;2023-08-20T09:21:26;100139.95;;;27.68;26.12
80500;BME280;69823;54.120;-4.710;2023-08-20T09:23:45;100138.76;;;27.69;26.09
80500;BME280;69823;54.120;-4.710;2023-08-20T09:26:11;100139.74;;;27.77;26.06
80500;BME280;69823;54.120;-4.710;2023-08-20T09:28:41;100143.87;;;28.44;25.91
80500;BME280;69823;54.120;-4.710;2023-08-20T09:31:02;100141.28;;;28.03;25.86
80500;BME280;69823;54.120;-4.710;2023-08-20T09:33:28;100140.30;;;28.08;25.85
80500;BME280;69823;54.120;-4.710;2023-08-20T09:35:54;100137.93;;;28.16;25.81
80500;BME280;69823;54.120;-4.710;2023-08-20T09:38:20;100137.61;;;27.94;25.79
80500;BME280;69823;54.120;-4.710;2023-08-20T09:40:46;100141.51;;;28.24;25.77
80500;BME280;69823;54.120;-4.710;2023-08-20T09:43:12;100134.97;;;28.27;25.72
80500;BME280;69823;54.120;-4.710;2023-08-20T09:45:37;100136.70;;;28.33;25.61
80500;BME280;69823;54.120;-4.710;2023-08-20T09:48:05;100138.24;;;28.17;25.59
80500;BME280;69823;54.120;-4.710;2023-08-20T09:50:28;100135.72;;;28.28;25.48
80500;BME280;69823;54.120;-4.710;2023-08-20T09:52:57;100130.42;;;28.62;25.38
80500;BME280;69823;54.120;-4.710;2023-08-20T09:55:21;100129.26;;;28.61;25.41
80500;BME280;69823;54.120;-4.710;2023-08-20T09:57:47;100136.47;;;28.61;25.33
80500;BME280;69823;54.120;-4.710;2023-08-20T10:00:11;100140.07;;;28.13;25.30
80500;BME280;69823;54.120;-4.710;2023-08-20T10:02:36;100134.77;;;28.64;25.29
80500;BME280;69823;54.120;-4.710;2023-08-20T10:05:02;100135.76;;;28.38;25.28
80500;BME280;69823;54.120;-4.710;2023-08-20T10:07:28;100134.47;;;28.36;25.38
80500;BME280;69823;54.120;-4.710;2023-08-20T10:09:53;100136.00;;;28.73;25.25
80500;BME280;69823;54.120;-4.710;2023-08-20T10:12:19;100136.01;;;28.62;25.40
80500;BME280;69823;54.120;-4.710;2023-08-20T10:14:44;100138.60;;;28.67;25.34
80500;BME280;69823;54.120;-4.710;2023-08-20T10:17:11;100136.89;;;28.45;25.37
80500;BME280;69823;54.120;-4.710;2023-08-20T10:19:36;100134.84;;;28.71;25.35
80500;BME280;69823;54.120;-4.710;2023-08-20T10:22:02;100137.01;;;28.45;25.38
80500;BME280;69823;54.120;-4.710;2023-08-20T10:24:27;100142.00;;;28.58;25.28
80500;BME280;69823;54.120;-4.710;2023-08-20T10:31:46;100146.21;;;28.79;25.37
80500;BME280;69823;54.120;-4.710;2023-08-20T10:34:08;100153.44;;;28.59;25.25
80500;BME280;69823;54.120;-4.710;2023-08-20T10:36:41;100152.11;;;28.85;25.24
80500;BME280;69823;54.120;-4.710;2023-08-20T10:39:04;100152.74;;;28.92;25.23
80500;BME280;69823;54.120;-4.710;2023-08-20T10:41:26;100157.27;;;28.63;25.28
80500;BME280;69823;54.120;-4.710;2023-08-20T10:43:51;100156.93;;;28.70;25.20
80500;BME280;69823;54.120;-4.710;2023-08-20T10:46:18;100162.99;;;28.48;25.25
80500;BME280;69823;54.120;-4.710;2023-08-20T10:48:45;100166.03;;;28.70;25.21
80500;BME280;69823;54.120;-4.710;2023-08-20T10:51:10;100170.08;;;28.71;25.19
80500;BME280;69823;54.120;-4.710;2023-08-20T10:53:33;100174.12;;;28.70;25.24
80500;BME280;69823;54.120;-4.710;2023-08-20T10:58:24;100165.19;;;28.93;25.22
80500;BME280;69823;54.120;-4.710;2023-08-20T11:03:15;100180.42;;;28.89;25.25
80500;BME280;69823;54.120;-4.710;2023-08-20T11:05:41;100171.77;;;28.61;25.44
80500;BME280;69823;54.120;-4.710;2023-08-20T11:08:07;100172.19;;;28.66;25.30
80500;BME280;69823;54.120;-4.710;2023-08-20T11:10:32;100170.08;;;28.89;25.32
80500;BME280;69823;54.120;-4.710;2023-08-20T11:12:58;100173.40;;;28.70;25.25
80500;BME280;69823;54.120;-4.710;2023-08-20T11:15:24;100176.49;;;28.91;25.28
80500;BME280;69823;54.120;-4.710;2023-08-20T11:17:49;100170.86;;;28.65;25.30
80500;BME280;69823;54.120;-4.710;2023-08-20T11:20:15;100168.95;;;28.88;25.29
80500;BME280;69823;54.120;-4.710;2023-08-20T11:22:41;100167.38;;;28.89;25.38
80500;BME280;69823;54.120;-4.710;2023-08-20T11:25:10;100172.77;;;28.67;25.30
80500;BME280;69823;54.120;-4.710;2023-08-20T11:27:32;100167.45;;;28.91;25.43
80500;BME280;69823;54.120;-4.710;2023-08-20T11:29:58;100169.44;;;28.69;25.24
80500;BME280;69823;54.120;-4.710;2023-08-20T11:32:23;100167.99;;;28.78;25.10
80500;BME280;69823;54.120;-4.710;2023-08-20T11:34:49;100167.04;;;28.96;25.15
80500;BME280;69823;54.120;-4.710;2023-08-20T11:37:17;100172.95;;;29.00;25.11
80500;BME280;69823;54.120;-4.710;2023-08-20T11:39:41;100180.98;;;29.02;25.11
80500;BME280;69823;54.120;-4.710;2023-08-20T11:42:06;100181.62;;;28.83;25.06
80500;BME280;69823;54.120;-4.710;2023-08-20T11:44:42;100180.60;;;28.83;25.04
80500;BME280;69823;54.120;-4.710;2023-08-20T11:46:57;100179.90;;;28.89;24.94
80500;BME280;69823;54.120;-4.710;2023-08-20T11:49:27;100181.75;;;29.04;25.03
80500;BME280;69823;54.120;-4.710;2023-08-20T11:51:49;100183.60;;;28.98;25.08
80500;BME280;69823;54.120;-4.710;2023-08-20T11:54:16;100179.34;;;28.76;25.06
80500;BME280;69823;54.120;-4.710;2023-08-20T11:56:44;100179.91;;;29.05;25.01
80500;BME280;69823;54.120;-4.710;2023-08-20T11:59:10;100177.85;;;28.79;25.06
80500;BME280;69823;54.120;-4.710;2023-08-20T12:01:32;100185.61;;;29.06;25.07
80500;BME280;69823;54.120;-4.710;2023-08-20T12:04:00;100186.04;;;28.74;25.08
80500;BME280;69823;54.120;-4.710;2023-08-20T12:06:23;100186.28;;;28.76;25.09
80500;BME280;69823;54.120;-4.710;2023-08-20T12:08:49;100189.98;;;28.78;25.08
80500;BME280;69823;54.120;-4.710;2023-08-20T12:11:15;100190.13;;;29.00;25.07
80500;BME280;69823;54.120;-4.710;2023-08-20T12:13:40;100190.97;;;29.04;25.07
80500;BME280;69823;54.120;-4.710;2023-08-20T12:16:06;100193.35;;;28.60;25.03
80500;BME280;69823;54.120;-4.710;2023-08-20T12:18:31;100203.51;;;28.80;25.13
80500;BME280;69823;54.120;-4.710;2023-08-20T12:20:57;100196.70;;;28.81;25.07
80500;BME280;69823;54.120;-4.710;2023-08-20T12:23:23;100197.30;;;28.78;25.14
80500;BME280;69823;54.120;-4.710;2023-08-20T12:25:50;100203.13;;;29.09;25.07
80500;BME280;69823;54.120;-4.710;2023-08-20T12:28:14;100196.93;;;28.90;25.02
80500;BME280;69823;54.120;-4.710;2023-08-20T12:30:40;100193.36;;;29.18;24.96
80500;BME280;69823;54.120;-4.710;2023-08-20T12:33:06;100192.57;;;29.17;25.01
80500;BME280;69823;54.120;-4.710;2023-08-20T12:35:31;100191.90;;;28.93;25.00
80500;BME280;69823;54.120;-4.710;2023-08-20T12:37:57;100196.25;;;29.20;24.95
80500;BME280;69823;54.120;-4.710;2023-08-20T12:40:22;100191.69;;;29.16;24.99
80500;BME280;69823;54.120;-4.710;2023-08-20T12:42:48;100193.74;;;29.19;25.00
80500;BME280;69823;54.120;-4.710;2023-08-20T12:45:14;100191.05;;;29.17;24.97